sensor_id;sensor_type;location;lat;lon;timestamp;P1;durP1;ratioP1;P2;durP2;ratioP2
41923;SDS011;27613;48.116;11.656;2022-12-13T00:01:51;14.57;;;6.70;;
41923;SDS011;27613;48.116;11.656;2022-12-13T00:04:18;10.80;;;6.43;;
41923;SDS011;27613;48.116;11.656;2022-12-13T00:06:45;10.53;;;6.13;;
41923;SDS011;27613;48.116;11.656;2022-12-13T00:09:12;10.43;;;6.07;;
41923;SDS011;27613;48.116;11.656;2022-12-13T00:11:38;9.90;;;5.40;;
41923;SDS011;27613;48.116;11.656;2022-12-13T00:14:04;9.73;;;5.80;;
41923;SDS011;27613;48.116;11.656;2022-12-13T00:16:29;16.77;;;6.00;;
41923;SDS011;27613;48.116;11.656;2022-12-13T00:18:56;10.63;;;6.00;;
41923;SDS011;27613;48.116;11.656;2022-12-13T00:21:30;10.20;;;5.37;;
41923;SDS011;27613;48.116;11.656;2022-12-13T00:23:57;11.80;;;6.00;;
41923;SDS011;27613;48.116;11.656;2022-12-13T00:26:25;8.63;;;5.23;;
41923;SDS011;27613;48.116;11.656;2022-12-13T00:28:53;14.07;;;6.53;;
41923;SDS011;27613;48.116;11.656;2022-12-13T00:31:19;15.00;;;6.50;;
41923;SDS011;27613;48.116;11.656;2022-12-13T00:33:46;8.77;;;4.97;;
41923;SDS011;27613;48.116;11.656;2022-12-13T00:36:13;18.93;;;5.83;;
41923;SDS011;27613;48.116;11.656;2022-12-13T00:38:39;8.30;;;4.87;;
41923;SDS011;27613;48.116;11.656;2022-12-13T00:41:14;11.53;;;6.67;;
41923;SDS011;27613;48.116;11.656;2022-12-13T00:43:41;13.17;;;6.17;;
41923;SDS011;27613;48.116;11.656;2022-12-13T00:46:14;7.10;;;4.57;;
41923;SDS011;27613;48.116;11.656;2022-12-13T00:48:42;14.83;;;5.80;;
41923;SDS011;27613;48.116;11.656;2022-12-13T00:51:09;8.47;;;5.20;;
41923;SDS011;27613;48.116;11.656;2022-12-13T00:53:36;10.43;;;5.53;;
41923;SDS011;27613;48.116;11.656;2022-12-13T00:56:02;12.33;;;6.37;;
41923;SDS011;27613;48.116;11.656;2022-12-13T00:58:29;10.27;;;5.53;;
41923;SDS011;27613;48.116;11.656;2022-12-13T01:01:02;10.80;;;5.43;;
41923;SDS011;27613;48.116;11.656;2022-12-13T01:03:31;7.20;;;4.77;;
41923;SDS011;27613;48.116;11.656;2022-12-13T01:05:57;8.97;;;5.23;;
41923;SDS011;27613;48.116;11.656;2022-12-13T01:08:23;8.90;;;5.37;;
41923;SDS011;27613;48.116;11.656;2022-12-13T01:10:49;10.93;;;5.63;;
41923;SDS011;27613;48.116;11.656;2022-12-13T01:13:15;13.83;;;5.80;;
41923;SDS011;27613;48.116;11.656;2022-12-13T01:15:44;7.43;;;4.30;;
41923;SDS011;27613;48.116;11.656;2022-12-13T01:18:11;11.00;;;5.00;;
41923;SDS011;27613;48.116;11.656;2022-12-13T01:20:42;10.30;;;5.77;;
41923;SDS011;27613;48.116;11.656;2022-12-13T01:23:20;13.57;;;5.70;;
41923;SDS011;27613;48.116;11.656;2022-12-13T01:25:46;7.80;;;5.13;;
41923;SDS011;27613;48.116;11.656;2022-12-13T01:28:11;9.27;;;4.57;;
41923;SDS011;27613;48.116;11.656;2022-12-13T01:30:37;9.47;;;5.27;;
41923;SDS011;27613;48.116;11.656;2022-12-13T01:33:02;14.30;;;4.97;;
41923;SDS011;27613;48.116;11.656;2022-12-13T01:35:28;11.33;;;5.33;;
41923;SDS011;27613;48.116;11.656;2022-12-13T01:37:53;12.83;;;7.73;;
41923;SDS011;27613;48.116;11.656;2022-12-13T01:40:19;27.27;;;7.47;;
41923;SDS011;27613;48.116;11.656;2022-12-13T01:42:45;10.30;;;6.30;;
41923;SDS011;27613;48.116;11.656;2022-12-13T01:45:24;10.70;;;5.97;;
41923;SDS011;27613;48.116;11.656;2022-12-13T01:47:57;12.03;;;4.53;;
41923;SDS011;27613;48.116;11.656;2022-12-13T01:50:28;11.65;;;5.55;;
41923;SDS011;27613;48.116;11.656;2022-12-13T01:52:56;11.87;;;5.00;;
41923;SDS011;27613;48.116;11.656;2022-12-13T01:55:25;11.30;;;6.13;;
41923;SDS011;27613;48.116;11.656;2022-12-13T01:57:54;11.00;;;5.37;;
41923;SDS011;27613;48.116;11.656;2022-12-13T02:00:24;16.43;;;7.93;;
41923;SDS011;27613;48.116;11.656;2022-12-13T02:02:50;13.03;;;6.80;;
41923;SDS011;27613;48.116;11.656;2022-12-13T02:05:26;21.93;;;6.27;;
41923;SDS011;27613;48.116;11.656;2022-12-13T02:07:57;16.53;;;6.23;;
41923;SDS011;27613;48.116;11.656;2022-12-13T02:10:24;9.97;;;6.13;;
41923;SDS011;27613;48.116;11.656;2022-12-13T02:12:50;19.70;;;6.63;;
41923;SDS011;27613;48.116;11.656;2022-12-13T02:15:16;13.27;;;6.83;;
41923;SDS011;27613;48.116;11.656;2022-12-13T02:31:14;13.20;;;6.87;;
41923;SDS011;27613;48.116;11.656;2022-12-13T02:33:54;9.17;;;5.27;;
41923;SDS011;27613;48.116;11.656;2022-12-13T02:36:24;13.00;;;6.13;;
41923;SDS011;27613;48.116;11.656;2022-12-13T02:39:08;14.83;;;7.03;;
41923;SDS011;27613;48.116;11.656;2022-12-13T02:41:48;11.00;;;5.40;;
41923;SDS011;27613;48.116;11.656;2022-12-13T02:44:20;9.80;;;6.00;;
41923;SDS011;27613;48.116;11.656;2022-12-13T02:47:00;9.27;;;5.90;;
41923;SDS011;27613;48.116;11.656;2022-12-13T02:49:30;13.03;;;6.47;;
41923;SDS011;27613;48.116;11.656;2022-12-13T02:51:59;12.73;;;6.83;;
41923;SDS011;27613;48.116;11.656;2022-12-13T02:54:27;12.80;;;6.13;;
41923;SDS011;27613;48.116;11.656;2022-12-13T02:56:54;11.93;;;6.20;;
41923;SDS011;27613;48.116;11.656;2022-12-13T02:59:28;9.27;;;5.60;;
41923;SDS011;27613;48.116;11.656;2022-12-13T03:07:51;9.30;;;3.72;;
41923;SDS011;27613;48.116;11.656;2022-12-13T03:10:36;18.17;;;5.85;;
41923;SDS011;27613;48.116;11.656;2022-12-13T03:13:17;13.57;;;5.80;;
41923;SDS011;27613;48.116;11.656;2022-12-13T03:16:03;10.97;;;5.30;;
41923;SDS011;27613;48.116;11.656;2022-12-13T03:18:37;6.83;;;4.27;;
41923;SDS011;27613;48.116;11.656;2022-12-13T03:21:05;17.20;;;6.53;;
41923;SDS011;27613;48.116;11.656;2022-12-13T03:23:33;14.67;;;7.37;;
41923;SDS011;27613;48.116;11.656;2022-12-13T03:26:07;14.73;;;7.43;;
41923;SDS011;27613;48.116;11.656;2022-12-13T03:28:35;8.63;;;5.70;;
41923;SDS011;27613;48.116;11.656;2022-12-13T03:31:00;9.97;;;5.90;;
41923;SDS011;27613;48.116;11.656;2022-12-13T03:33:26;10.67;;;6.37;;
41923;SDS011;27613;48.116;11.656;2022-12-13T03:35:52;10.63;;;6.53;;
41923;SDS011;27613;48.116;11.656;2022-12-13T03:38:18;18.37;;;5.40;;
41923;SDS011;27613;48.116;11.656;2022-12-13T03:40:43;10.30;;;6.20;;
41923;SDS011;27613;48.116;11.656;2022-12-13T03:43:09;12.50;;;7.27;;
41923;SDS011;27613;48.116;11.656;2022-12-13T03:45:35;13.50;;;7.40;;
41923;SDS011;27613;48.116;11.656;2022-12-13T03:48:01;14.50;;;7.17;;
41923;SDS011;27613;48.116;11.656;2022-12-13T03:50:26;16.57;;;7.87;;
41923;SDS011;27613;48.116;11.656;2022-12-13T03:52:57;15.27;;;7.60;;
41923;SDS011;27613;48.116;11.656;2022-12-13T03:55:23;14.07;;;7.90;;
41923;SDS011;27613;48.116;11.656;2022-12-13T03:57:49;12.47;;;6.80;;
41923;SDS011;27613;48.116;11.656;2022-12-13T04:00:15;10.20;;;6.37;;
41923;SDS011;27613;48.116;11.656;2022-12-13T04:02:40;10.10;;;5.03;;
41923;SDS011;27613;48.116;11.656;2022-12-13T04:05:06;14.73;;;6.80;;
41923;SDS011;27613;48.116;11.656;2022-12-13T04:07:32;10.90;;;6.17;;
41923;SDS011;27613;48.116;11.656;2022-12-13T04:09:57;17.53;;;7.33;;
41923;SDS011;27613;48.116;11.656;2022-12-13T04:12:26;10.10;;;5.97;;
41923;SDS011;27613;48.116;11.656;2022-12-13T04:15:30;9.52;;;4.72;;
41923;SDS011;27613;48.116;11.656;2022-12-13T04:17:55;12.33;;;6.33;;
41923;SDS011;27613;48.116;11.656;2022-12-13T04:20:21;10.77;;;5.63;;
41923;SDS011;27613;48.116;11.656;2022-12-13T04:22:46;15.07;;;7.33;;
41923;SDS011;27613;48.116;11.656;2022-12-13T04:25:12;12.57;;;6.37;;
41923;SDS011;27613;48.116;11.656;2022-12-13T04:27:38;10.87;;;6.50;;
41923;SDS011;27613;48.116;11.656;2022-12-13T04:30:04;11.53;;;6.40;;
41923;SDS011;27613;48.116;11.656;2022-12-13T04:32:30;9.13;;;5.77;;
41923;SDS011;27613;48.116;11.656;2022-12-13T04:34:56;14.07;;;4.83;;
41923;SDS011;27613;48.116;11.656;2022-12-13T04:37:22;11.50;;;5.77;;
41923;SDS011;27613;48.116;11.656;2022-12-13T04:39:47;12.83;;;5.73;;
41923;SDS011;27613;48.116;11.656;2022-12-13T04:42:13;8.33;;;5.33;;
41923;SDS011;27613;48.116;11.656;2022-12-13T04:44:39;8.10;;;5.03;;
41923;SDS011;27613;48.116;11.656;2022-12-13T04:47:04;10.67;;;5.47;;
41923;SDS011;27613;48.116;11.656;2022-12-13T04:49:30;13.43;;;6.10;;
41923;SDS011;27613;48.116;11.656;2022-12-13T04:51:56;10.90;;;5.70;;
41923;SDS011;27613;48.116;11.656;2022-12-13T04:54:22;13.43;;;5.47;;
41923;SDS011;27613;48.116;11.656;2022-12-13T04:56:47;17.13;;;5.77;;
41923;SDS011;27613;48.116;11.656;2022-12-13T04:59:14;10.27;;;6.30;;
41923;SDS011;27613;48.116;11.656;2022-12-13T05:01:40;10.70;;;6.07;;
41923;SDS011;27613;48.116;11.656;2022-12-13T05:04:05;9.77;;;5.27;;
41923;SDS011;27613;48.116;11.656;2022-12-13T05:06:31;10.60;;;5.67;;
41923;SDS011;27613;48.116;11.656;2022-12-13T05:08:57;14.97;;;5.97;;
41923;SDS011;27613;48.116;11.656;2022-12-13T05:11:22;13.57;;;5.73;;
41923;SDS011;27613;48.116;11.656;2022-12-13T05:13:48;12.83;;;6.20;;
41923;SDS011;27613;48.116;11.656;2022-12-13T05:16:13;12.00;;;6.03;;
41923;SDS011;27613;48.116;11.656;2022-12-13T05:18:40;12.17;;;6.07;;
41923;SDS011;27613;48.116;11.656;2022-12-13T05:21:07;10.50;;;5.90;;
41923;SDS011;27613;48.116;11.656;2022-12-13T05:23:35;12.33;;;5.87;;
41923;SDS011;27613;48.116;11.656;2022-12-13T05:26:03;11.07;;;5.40;;
41923;SDS011;27613;48.116;11.656;2022-12-13T05:28:29;9.50;;;5.50;;
41923;SDS011;27613;48.116;11.656;2022-12-13T05:30:55;7.03;;;4.30;;
41923;SDS011;27613;48.116;11.656;2022-12-13T05:33:23;8.13;;;5.03;;
41923;SDS011;27613;48.116;11.656;2022-12-13T05:35:49;13.03;;;5.50;;
41923;SDS011;27613;48.116;11.656;2022-12-13T05:38:15;8.53;;;5.10;;
41923;SDS011;27613;48.116;11.656;2022-12-13T05:40:42;10.37;;;5.67;;
41923;SDS011;27613;48.116;11.656;2022-12-13T05:43:12;11.50;;;5.80;;
41923;SDS011;27613;48.116;11.656;2022-12-13T05:45:38;9.90;;;5.10;;
41923;SDS011;27613;48.116;11.656;2022-12-13T05:48:04;9.67;;;5.13;;
41923;SDS011;27613;48.116;11.656;2022-12-13T05:50:30;12.50;;;6.00;;
41923;SDS011;27613;48.116;11.656;2022-12-13T05:52:56;12.70;;;6.33;;
41923;SDS011;27613;48.116;11.656;2022-12-13T05:55:22;14.27;;;6.00;;
41923;SDS011;27613;48.116;11.656;2022-12-13T05:57:48;8.17;;;5.33;;
41923;SDS011;27613;48.116;11.656;2022-12-13T06:00:14;16.47;;;6.53;;
41923;SDS011;27613;48.116;11.656;2022-12-13T06:02:41;10.27;;;6.07;;
41923;SDS011;27613;48.116;11.656;2022-12-13T06:05:08;9.10;;;5.20;;
41923;SDS011;27613;48.116;11.656;2022-12-13T06:07:35;12.27;;;5.47;;
41923;SDS011;27613;48.116;11.656;2022-12-13T06:10:02;8.53;;;5.40;;
41923;SDS011;27613;48.116;11.656;2022-12-13T06:12:29;10.80;;;5.27;;
41923;SDS011;27613;48.116;11.656;2022-12-13T06:14:55;12.87;;;5.83;;
41923;SDS011;27613;48.116;11.656;2022-12-13T06:17:21;18.87;;;5.37;;
41923;SDS011;27613;48.116;11.656;2022-12-13T06:19:51;9.87;;;4.70;;
41923;SDS011;27613;48.116;11.656;2022-12-13T06:22:17;11.37;;;5.53;;
41923;SDS011;27613;48.116;11.656;2022-12-13T06:24:43;11.23;;;5.57;;
41923;SDS011;27613;48.116;11.656;2022-12-13T06:27:08;11.43;;;6.47;;
41923;SDS011;27613;48.116;11.656;2022-12-13T06:29:34;8.00;;;4.63;;
41923;SDS011;27613;48.116;11.656;2022-12-13T06:32:00;10.90;;;4.93;;
41923;SDS011;27613;48.116;11.656;2022-12-13T06:34:27;12.77;;;6.03;;
41923;SDS011;27613;48.116;11.656;2022-12-13T06:36:53;15.33;;;5.83;;
41923;SDS011;27613;48.116;11.656;2022-12-13T06:39:18;16.07;;;6.60;;
41923;SDS011;27613;48.116;11.656;2022-12-13T06:41:45;12.67;;;5.87;;
41923;SDS011;27613;48.116;11.656;2022-12-13T06:44:11;14.07;;;5.93;;
41923;SDS011;27613;48.116;11.656;2022-12-13T06:46:36;11.00;;;6.20;;
41923;SDS011;27613;48.116;11.656;2022-12-13T06:49:02;8.63;;;5.23;;
41923;SDS011;27613;48.116;11.656;2022-12-13T06:51:28;12.67;;;4.73;;
41923;SDS011;27613;48.116;11.656;2022-12-13T06:53:54;15.37;;;4.90;;
41923;SDS011;27613;48.116;11.656;2022-12-13T06:56:20;11.40;;;5.70;;
41923;SDS011;27613;48.116;11.656;2022-12-13T06:58:46;11.87;;;5.70;;
41923;SDS011;27613;48.116;11.656;2022-12-13T07:01:13;13.53;;;6.23;;
41923;SDS011;27613;48.116;11.656;2022-12-13T07:03:40;8.63;;;5.17;;
41923;SDS011;27613;48.116;11.656;2022-12-13T07:06:08;11.50;;;5.43;;
41923;SDS011;27613;48.116;11.656;2022-12-13T07:08:38;11.83;;;5.73;;
41923;SDS011;27613;48.116;11.656;2022-12-13T07:11:15;10.20;;;6.03;;
41923;SDS011;27613;48.116;11.656;2022-12-13T07:13:43;12.80;;;5.97;;
41923;SDS011;27613;48.116;11.656;2022-12-13T07:16:09;13.27;;;6.10;;
41923;SDS011;27613;48.116;11.656;2022-12-13T07:18:36;14.20;;;6.33;;
41923;SDS011;27613;48.116;11.656;2022-12-13T07:21:05;9.97;;;6.23;;
41923;SDS011;27613;48.116;11.656;2022-12-13T07:23:36;17.07;;;7.30;;
41923;SDS011;27613;48.116;11.656;2022-12-13T07:26:02;19.07;;;7.00;;
41923;SDS011;27613;48.116;11.656;2022-12-13T07:28:31;13.10;;;6.93;;
41923;SDS011;27613;48.116;11.656;2022-12-13T07:30:59;17.93;;;6.00;;
41923;SDS011;27613;48.116;11.656;2022-12-13T07:33:26;20.13;;;8.57;;
41923;SDS011;27613;48.116;11.656;2022-12-13T07:36:03;10.43;;;5.87;;
41923;SDS011;27613;48.116;11.656;2022-12-13T07:38:31;15.07;;;6.70;;
41923;SDS011;27613;48.116;11.656;2022-12-13T07:41:00;13.93;;;7.57;;
41923;SDS011;27613;48.116;11.656;2022-12-13T07:43:25;11.90;;;7.20;;
41923;SDS011;27613;48.116;11.656;2022-12-13T07:45:51;14.13;;;7.63;;
41923;SDS011;27613;48.116;11.656;2022-12-13T07:48:17;12.83;;;6.87;;
41923;SDS011;27613;48.116;11.656;2022-12-13T07:50:43;12.63;;;7.80;;
41923;SDS011;27613;48.116;11.656;2022-12-13T07:53:09;15.53;;;8.17;;
41923;SDS011;27613;48.116;11.656;2022-12-13T07:55:35;20.10;;;9.60;;
41923;SDS011;27613;48.116;11.656;2022-12-13T07:58:11;31.98;;;10.88;;
41923;SDS011;27613;48.116;11.656;2022-12-13T08:00:39;13.93;;;8.82;;
41923;SDS011;27613;48.116;11.656;2022-12-13T08:03:06;10.98;;;7.15;;
41923;SDS011;27613;48.116;11.656;2022-12-13T08:05:32;14.07;;;7.70;;
41923;SDS011;27613;48.116;11.656;2022-12-13T08:07:58;12.38;;;7.40;;
41923;SDS011;27613;48.116;11.656;2022-12-13T08:10:25;9.95;;;6.95;;
41923;SDS011;27613;48.116;11.656;2022-12-13T08:12:52;11.85;;;7.43;;
41923;SDS011;27613;48.116;11.656;2022-12-13T08:15:18;10.18;;;6.95;;
41923;SDS011;27613;48.116;11.656;2022-12-13T08:17:44;12.40;;;7.05;;
41923;SDS011;27613;48.116;11.656;2022-12-13T08:20:09;9.25;;;6.75;;
41923;SDS011;27613;48.116;11.656;2022-12-13T08:22:35;14.05;;;7.15;;
41923;SDS011;27613;48.116;11.656;2022-12-13T08:25:01;11.80;;;7.05;;
41923;SDS011;27613;48.116;11.656;2022-12-13T08:27:27;16.75;;;8.02;;
41923;SDS011;27613;48.116;11.656;2022-12-13T08:29:52;15.45;;;8.80;;
41923;SDS011;27613;48.116;11.656;2022-12-13T08:32:18;11.50;;;8.80;;
41923;SDS011;27613;48.116;11.656;2022-12-13T08:34:44;18.35;;;11.75;;
41923;SDS011;27613;48.116;11.656;2022-12-13T08:37:10;15.30;;;10.73;;
41923;SDS011;27613;48.116;11.656;2022-12-13T08:39:36;12.77;;;9.20;;
41923;SDS011;27613;48.116;11.656;2022-12-13T08:42:04;20.23;;;8.80;;
41923;SDS011;27613;48.116;11.656;2022-12-13T08:44:32;13.50;;;8.95;;
41923;SDS011;27613;48.116;11.656;2022-12-13T08:46:57;13.77;;;8.48;;
41923;SDS011;27613;48.116;11.656;2022-12-13T08:49:23;10.85;;;7.78;;
41923;SDS011;27613;48.116;11.656;2022-12-13T08:51:48;11.43;;;7.28;;
41923;SDS011;27613;48.116;11.656;2022-12-13T08:54:14;10.35;;;7.15;;
41923;SDS011;27613;48.116;11.656;2022-12-13T08:56:39;10.75;;;6.97;;
41923;SDS011;27613;48.116;11.656;2022-12-13T08:59:05;17.25;;;7.40;;
41923;SDS011;27613;48.116;11.656;2022-12-13T09:01:31;9.52;;;7.43;;
41923;SDS011;27613;48.116;11.656;2022-12-13T09:03:57;10.27;;;6.97;;
41923;SDS011;27613;48.116;11.656;2022-12-13T09:06:22;11.95;;;7.78;;
41923;SDS011;27613;48.116;11.656;2022-12-13T09:08:48;11.38;;;8.13;;
41923;SDS011;27613;48.116;11.656;2022-12-13T09:11:16;17.50;;;10.70;;
41923;SDS011;27613;48.116;11.656;2022-12-13T09:13:42;10.70;;;8.20;;
41923;SDS011;27613;48.116;11.656;2022-12-13T09:16:09;8.52;;;7.30;;
41923;SDS011;27613;48.116;11.656;2022-12-13T09:21:10;9.88;;;7.28;;
41923;SDS011;27613;48.116;11.656;2022-12-13T09:23:38;9.57;;;7.28;;
41923;SDS011;27613;48.116;11.656;2022-12-13T09:26:05;12.65;;;9.13;;
41923;SDS011;27613;48.116;11.656;2022-12-13T09:28:33;14.32;;;8.48;;
41923;SDS011;27613;48.116;11.656;2022-12-13T09:31:05;9.40;;;7.95;;
41923;SDS011;27613;48.116;11.656;2022-12-13T09:33:32;9.82;;;7.65;;
41923;SDS011;27613;48.116;11.656;2022-12-13T09:35:57;10.73;;;8.60;;
41923;SDS011;27613;48.116;11.656;2022-12-13T09:38:23;9.20;;;7.60;;
41923;SDS011;27613;48.116;11.656;2022-12-13T09:40:49;12.63;;;8.25;;
41923;SDS011;27613;48.116;11.656;2022-12-13T09:43:23;13.73;;;7.95;;
41923;SDS011;27613;48.116;11.656;2022-12-13T09:45:50;11.85;;;7.78;;
41923;SDS011;27613;48.116;11.656;2022-12-13T09:48:16;13.35;;;8.65;;
41923;SDS011;27613;48.116;11.656;2022-12-13T09:50:44;11.63;;;8.27;;
41923;SDS011;27613;48.116;11.656;2022-12-13T09:53:10;11.63;;;8.00;;
41923;SDS011;27613;48.116;11.656;2022-12-13T09:55:43;15.57;;;7.65;;
41923;SDS011;27613;48.116;11.656;2022-12-13T09:58:13;10.93;;;7.68;;
41923;SDS011;27613;48.116;11.656;2022-12-13T10:00:43;10.27;;;7.63;;
41923;SDS011;27613;48.116;11.656;2022-12-13T10:03:12;10.00;;;7.22;;
41923;SDS011;27613;48.116;11.656;2022-12-13T10:05:40;11.07;;;8.52;;
41923;SDS011;27613;48.116;11.656;2022-12-13T10:08:23;14.25;;;10.50;;
41923;SDS011;27613;48.116;11.656;2022-12-13T10:10:55;16.63;;;10.48;;
41923;SDS011;27613;48.116;11.656;2022-12-13T10:13:26;9.70;;;7.57;;
41923;SDS011;27613;48.116;11.656;2022-12-13T10:16:07;12.68;;;9.48;;
41923;SDS011;27613;48.116;11.656;2022-12-13T10:18:43;9.40;;;7.15;;
41923;SDS011;27613;48.116;11.656;2022-12-13T10:21:14;9.73;;;7.57;;
41923;SDS011;27613;48.116;11.656;2022-12-13T10:23:50;12.15;;;8.85;;
41923;SDS011;27613;48.116;11.656;2022-12-13T10:26:16;8.18;;;7.10;;
41923;SDS011;27613;48.116;11.656;2022-12-13T10:28:41;8.85;;;7.28;;
41923;SDS011;27613;48.116;11.656;2022-12-13T10:31:14;10.35;;;8.32;;
41923;SDS011;27613;48.116;11.656;2022-12-13T10:33:46;9.10;;;7.13;;
41923;SDS011;27613;48.116;11.656;2022-12-13T10:36:31;9.90;;;6.88;;
41923;SDS011;27613;48.116;11.656;2022-12-13T10:38:59;10.52;;;7.55;;
41923;SDS011;27613;48.116;11.656;2022-12-13T10:41:29;9.93;;;7.88;;
41923;SDS011;27613;48.116;11.656;2022-12-13T10:44:08;12.27;;;7.13;;
41923;SDS011;27613;48.116;11.656;2022-12-13T10:46:33;9.82;;;7.63;;
41923;SDS011;27613;48.116;11.656;2022-12-13T10:49:00;8.43;;;7.25;;
41923;SDS011;27613;48.116;11.656;2022-12-13T10:51:25;11.73;;;8.00;;
41923;SDS011;27613;48.116;11.656;2022-12-13T10:53:53;9.13;;;6.47;;
41923;SDS011;27613;48.116;11.656;2022-12-13T10:56:21;11.05;;;7.70;;
41923;SDS011;27613;48.116;11.656;2022-12-13T10:59:16;12.18;;;7.65;;
41923;SDS011;27613;48.116;11.656;2022-12-13T11:01:47;10.20;;;7.78;;
41923;SDS011;27613;48.116;11.656;2022-12-13T11:06:59;12.13;;;7.80;;
41923;SDS011;27613;48.116;11.656;2022-12-13T11:09:33;12.77;;;7.50;;
41923;SDS011;27613;48.116;11.656;2022-12-13T11:12:00;16.10;;;8.60;;
41923;SDS011;27613;48.116;11.656;2022-12-13T11:14:31;10.05;;;7.53;;
41923;SDS011;27613;48.116;11.656;2022-12-13T11:17:09;7.95;;;6.60;;
41923;SDS011;27613;48.116;11.656;2022-12-13T11:22:31;8.55;;;6.13;;
41923;SDS011;27613;48.116;11.656;2022-12-13T11:25:04;8.60;;;6.15;;
41923;SDS011;27613;48.116;11.656;2022-12-13T11:30:23;8.20;;;5.65;;
41923;SDS011;27613;48.116;11.656;2022-12-13T11:40:58;7.50;;;5.30;;
41923;SDS011;27613;48.116;11.656;2022-12-13T11:43:36;6.70;;;5.07;;
41923;SDS011;27613;48.116;11.656;2022-12-13T11:46:20;11.88;;;4.97;;
41923;SDS011;27613;48.116;11.656;2022-12-13T11:48:59;21.17;;;6.18;;
41923;SDS011;27613;48.116;11.656;2022-12-13T11:51:40;9.32;;;6.80;;
41923;SDS011;27613;48.116;11.656;2022-12-13T11:54:22;13.20;;;9.15;;
41923;SDS011;27613;48.116;11.656;2022-12-13T11:56:55;14.07;;;10.02;;
41923;SDS011;27613;48.116;11.656;2022-12-13T11:59:33;14.73;;;8.38;;
41923;SDS011;27613;48.116;11.656;2022-12-13T12:05:45;12.43;;;8.20;;
41923;SDS011;27613;48.116;11.656;2022-12-13T12:08:03;14.98;;;10.70;;
41923;SDS011;27613;48.116;11.656;2022-12-13T12:10:45;17.52;;;9.25;;
41923;SDS011;27613;48.116;11.656;2022-12-13T12:15:47;17.20;;;10.13;;
41923;SDS011;27613;48.116;11.656;2022-12-13T12:18:19;13.65;;;10.00;;
41923;SDS011;27613;48.116;11.656;2022-12-13T12:23:23;17.85;;;10.82;;
41923;SDS011;27613;48.116;11.656;2022-12-13T12:26:08;13.75;;;9.77;;
41923;SDS011;27613;48.116;11.656;2022-12-13T12:40:24;15.90;;;9.88;;
41923;SDS011;27613;48.116;11.656;2022-12-13T12:43:24;15.55;;;10.43;;
41923;SDS011;27613;48.116;11.656;2022-12-13T13:00:25;14.50;;;10.07;;
41923;SDS011;27613;48.116;11.656;2022-12-13T13:02:58;18.10;;;10.60;;
41923;SDS011;27613;48.116;11.656;2022-12-13T13:11:07;15.30;;;11.18;;
41923;SDS011;27613;48.116;11.656;2022-12-13T13:18:52;15.25;;;10.18;;
41923;SDS011;27613;48.116;11.656;2022-12-13T13:24:03;13.93;;;8.63;;
41923;SDS011;27613;48.116;11.656;2022-12-13T13:26:32;14.02;;;9.40;;
41923;SDS011;27613;48.116;11.656;2022-12-13T13:31:56;16.45;;;10.70;;
41923;SDS011;27613;48.116;11.656;2022-12-13T13:34:23;20.48;;;11.27;;
41923;SDS011;27613;48.116;11.656;2022-12-13T13:36:55;20.58;;;10.48;;
41923;SDS011;27613;48.116;11.656;2022-12-13T13:44:33;16.45;;;10.63;;
41923;SDS011;27613;48.116;11.656;2022-12-13T14:26:56;13.85;;;7.78;;
41923;SDS011;27613;48.116;11.656;2022-12-13T14:29:41;12.98;;;7.60;;
41923;SDS011;27613;48.116;11.656;2022-12-13T14:32:09;16.45;;;7.20;;
41923;SDS011;27613;48.116;11.656;2022-12-13T14:34:51;13.80;;;7.85;;
41923;SDS011;27613;48.116;11.656;2022-12-13T14:37:24;14.93;;;9.38;;
41923;SDS011;27613;48.116;11.656;2022-12-13T14:39:56;14.18;;;8.02;;
41923;SDS011;27613;48.116;11.656;2022-12-13T14:42:29;15.27;;;8.90;;
41923;SDS011;27613;48.116;11.656;2022-12-13T14:45:12;13.40;;;8.05;;
41923;SDS011;27613;48.116;11.656;2022-12-13T14:47:40;13.73;;;8.18;;
41923;SDS011;27613;48.116;11.656;2022-12-13T14:50:07;12.90;;;8.07;;
41923;SDS011;27613;48.116;11.656;2022-12-13T14:52:34;13.18;;;7.50;;
41923;SDS011;27613;48.116;11.656;2022-12-13T14:55:03;18.38;;;8.63;;
41923;SDS011;27613;48.116;11.656;2022-12-13T14:57:31;15.25;;;8.10;;
41923;SDS011;27613;48.116;11.656;2022-12-13T14:59:58;16.60;;;9.02;;
41923;SDS011;27613;48.116;11.656;2022-12-13T15:02:28;16.30;;;8.50;;
41923;SDS011;27613;48.116;11.656;2022-12-13T15:04:59;15.73;;;8.88;;
41923;SDS011;27613;48.116;11.656;2022-12-13T15:07:29;27.70;;;16.52;;
41923;SDS011;27613;48.116;11.656;2022-12-13T15:09:56;18.05;;;11.48;;
41923;SDS011;27613;48.116;11.656;2022-12-13T15:12:24;14.40;;;9.48;;
41923;SDS011;27613;48.116;11.656;2022-12-13T15:15:00;13.20;;;7.50;;
41923;SDS011;27613;48.116;11.656;2022-12-13T15:19:57;14.13;;;8.77;;
41923;SDS011;27613;48.116;11.656;2022-12-13T15:22:24;17.38;;;9.23;;
41923;SDS011;27613;48.116;11.656;2022-12-13T15:24:50;15.35;;;9.68;;
41923;SDS011;27613;48.116;11.656;2022-12-13T15:27:19;13.93;;;8.88;;
41923;SDS011;27613;48.116;11.656;2022-12-13T15:29:46;14.43;;;9.25;;
41923;SDS011;27613;48.116;11.656;2022-12-13T15:32:17;17.58;;;10.02;;
41923;SDS011;27613;48.116;11.656;2022-12-13T15:34:46;16.98;;;9.80;;
41923;SDS011;27613;48.116;11.656;2022-12-13T15:37:14;17.50;;;9.60;;
41923;SDS011;27613;48.116;11.656;2022-12-13T15:39:44;18.80;;;9.13;;
41923;SDS011;27613;48.116;11.656;2022-12-13T15:42:17;14.60;;;8.82;;
41923;SDS011;27613;48.116;11.656;2022-12-13T15:44:52;12.63;;;8.43;;
41923;SDS011;27613;48.116;11.656;2022-12-13T15:47:19;13.90;;;9.23;;
41923;SDS011;27613;48.116;11.656;2022-12-13T15:49:51;18.88;;;9.93;;
41923;SDS011;27613;48.116;11.656;2022-12-13T15:54:55;15.75;;;9.55;;
41923;SDS011;27613;48.116;11.656;2022-12-13T15:57:27;16.90;;;9.20;;
41923;SDS011;27613;48.116;11.656;2022-12-13T16:00:05;21.15;;;12.52;;
41923;SDS011;27613;48.116;11.656;2022-12-13T16:05:35;23.58;;;11.98;;
41923;SDS011;27613;48.116;11.656;2022-12-13T16:08:23;16.88;;;8.80;;
41923;SDS011;27613;48.116;11.656;2022-12-13T16:10:52;25.88;;;13.27;;
41923;SDS011;27613;48.116;11.656;2022-12-13T16:13:29;21.85;;;11.73;;
41923;SDS011;27613;48.116;11.656;2022-12-13T16:16:00;37.90;;;18.33;;
41923;SDS011;27613;48.116;11.656;2022-12-13T16:18:45;24.00;;;14.07;;
41923;SDS011;27613;48.116;11.656;2022-12-13T16:21:16;24.42;;;13.35;;
41923;SDS011;27613;48.116;11.656;2022-12-13T16:23:41;24.55;;;12.57;;
41923;SDS011;27613;48.116;11.656;2022-12-13T16:26:13;19.55;;;11.90;;
41923;SDS011;27613;48.116;11.656;2022-12-13T16:28:39;18.83;;;11.50;;
41923;SDS011;27613;48.116;11.656;2022-12-13T16:31:19;21.27;;;12.32;;
41923;SDS011;27613;48.116;11.656;2022-12-13T16:33:49;23.20;;;12.82;;
41923;SDS011;27613;48.116;11.656;2022-12-13T16:36:14;24.90;;;14.15;;
41923;SDS011;27613;48.116;11.656;2022-12-13T16:38:40;24.30;;;12.40;;
41923;SDS011;27613;48.116;11.656;2022-12-13T16:41:06;23.65;;;12.50;;
41923;SDS011;27613;48.116;11.656;2022-12-13T16:43:32;22.48;;;12.07;;
41923;SDS011;27613;48.116;11.656;2022-12-13T16:46:02;21.95;;;11.98;;
41923;SDS011;27613;48.116;11.656;2022-12-13T16:48:28;25.83;;;13.18;;
41923;SDS011;27613;48.116;11.656;2022-12-13T16:50:55;24.65;;;13.40;;
41923;SDS011;27613;48.116;11.656;2022-12-13T16:53:21;20.98;;;13.23;;
41923;SDS011;27613;48.116;11.656;2022-12-13T16:55:47;28.67;;;13.95;;
41923;SDS011;27613;48.116;11.656;2022-12-13T16:58:13;29.48;;;14.82;;